sensor_id;sensor_type;location;lat;lon;timestamp;P1;durP1;ratioP1;P2;durP2;ratioP2
51525;SDS011;37611;51.794;21.590;2022-08-21T00:03:09;4.70;;;4.10;;
51525;SDS011;37611;51.794;21.590;2022-08-21T00:07:13;5.50;;;3.80;;
51525;SDS011;37611;51.794;21.590;2022-08-21T00:11:15;7.40;;;4.40;;
51525;SDS011;37611;51.794;21.590;2022-08-21T00:15:20;8.60;;;5.20;;
51525;SDS011;37611;51.794;21.590;2022-08-21T00:19:25;11.30;;;5.60;;
51525;SDS011;37611;51.794;21.590;2022-08-21T00:23:27;8.20;;;5.40;;
51525;SDS011;37611;51.794;21.590;2022-08-21T00:27:29;7.50;;;4.90;;
51525;SDS011;37611;51.794;21.590;2022-08-21T00:31:31;7.20;;;4.80;;
51525;SDS011;37611;51.794;21.590;2022-08-21T00:35:34;6.60;;;4.50;;
51525;SDS011;37611;51.794;21.590;2022-08-21T00:39:38;8.70;;;5.30;;
51525;SDS011;37611;51.794;21.590;2022-08-21T00:43:40;9.00;;;5.20;;
51525;SDS011;37611;51.794;21.590;2022-08-21T00:47:42;9.80;;;5.60;;
51525;SDS011;37611;51.794;21.590;2022-08-21T00:51:50;10.90;;;6.10;;
51525;SDS011;37611;51.794;21.590;2022-08-21T00:55:56;14.00;;;6.10;;
51525;SDS011;37611;51.794;21.590;2022-08-21T01:00:03;9.40;;;6.40;;
51525;SDS011;37611;51.794;21.590;2022-08-21T01:04:07;8.00;;;5.10;;
51525;SDS011;37611;51.794;21.590;2022-08-21T01:08:09;7.10;;;4.40;;
51525;SDS011;37611;51.794;21.590;2022-08-21T01:12:12;5.90;;;4.80;;
51525;SDS011;37611;51.794;21.590;2022-08-21T01:16:16;6.00;;;4.60;;
51525;SDS011;37611;51.794;21.590;2022-08-21T01:20:20;6.60;;;4.70;;
51525;SDS011;37611;51.794;21.590;2022-08-21T01:24:22;5.20;;;4.20;;
51525;SDS011;37611;51.794;21.590;2022-08-21T01:28:23;8.40;;;5.70;;
51525;SDS011;37611;51.794;21.590;2022-08-21T01:32:26;8.60;;;4.70;;
51525;SDS011;37611;51.794;21.590;2022-08-21T01:36:28;7.40;;;4.90;;
51525;SDS011;37611;51.794;21.590;2022-08-21T01:40:30;7.30;;;5.20;;
51525;SDS011;37611;51.794;21.590;2022-08-21T01:44:32;7.60;;;4.50;;
51525;SDS011;37611;51.794;21.590;2022-08-21T01:48:34;9.40;;;5.10;;
51525;SDS011;37611;51.794;21.590;2022-08-21T01:52:37;8.20;;;5.50;;
51525;SDS011;37611;51.794;21.590;2022-08-21T01:56:39;11.50;;;6.00;;
51525;SDS011;37611;51.794;21.590;2022-08-21T02:00:45;10.30;;;5.70;;
51525;SDS011;37611;51.794;21.590;2022-08-21T02:04:46;10.50;;;5.20;;
51525;SDS011;37611;51.794;21.590;2022-08-21T02:08:48;7.50;;;4.90;;
51525;SDS011;37611;51.794;21.590;2022-08-21T02:12:52;7.60;;;5.30;;
51525;SDS011;37611;51.794;21.590;2022-08-21T02:16:54;6.10;;;4.90;;
51525;SDS011;37611;51.794;21.590;2022-08-21T02:20:56;7.60;;;5.20;;
51525;SDS011;37611;51.794;21.590;2022-08-21T02:24:58;7.90;;;5.90;;
51525;SDS011;37611;51.794;21.590;2022-08-21T02:28:59;9.90;;;5.80;;
51525;SDS011;37611;51.794;21.590;2022-08-21T02:33:02;8.30;;;5.40;;
51525;SDS011;37611;51.794;21.590;2022-08-21T02:37:03;6.90;;;4.50;;
51525;SDS011;37611;51.794;21.590;2022-08-21T02:41:07;7.90;;;4.90;;
51525;SDS011;37611;51.794;21.590;2022-08-21T02:45:11;5.60;;;4.20;;
51525;SDS011;37611;51.794;21.590;2022-08-21T02:49:14;5.50;;;4.90;;
51525;SDS011;37611;51.794;21.590;2022-08-21T02:53:16;5.40;;;4.90;;
51525;SDS011;37611;51.794;21.590;2022-08-21T02:57:18;7.30;;;5.30;;
51525;SDS011;37611;51.794;21.590;2022-08-21T03:01:20;5.30;;;4.80;;
51525;SDS011;37611;51.794;21.590;2022-08-21T03:05:23;5.00;;;4.60;;
51525;SDS011;37611;51.794;21.590;2022-08-21T03:09:26;5.20;;;4.40;;
51525;SDS011;37611;51.794;21.590;2022-08-21T03:13:28;5.50;;;4.50;;
51525;SDS011;37611;51.794;21.590;2022-08-21T03:17:30;6.90;;;4.80;;
51525;SDS011;37611;51.794;21.590;2022-08-21T03:21:32;5.20;;;4.60;;
51525;SDS011;37611;51.794;21.590;2022-08-21T03:25:34;6.20;;;4.10;;
51525;SDS011;37611;51.794;21.590;2022-08-21T03:29:37;5.60;;;5.00;;
51525;SDS011;37611;51.794;21.590;2022-08-21T03:33:39;5.10;;;4.40;;
51525;SDS011;37611;51.794;21.590;2022-08-21T03:37:41;6.60;;;4.90;;
51525;SDS011;37611;51.794;21.590;2022-08-21T03:41:43;6.40;;;4.70;;
51525;SDS011;37611;51.794;21.590;2022-08-21T03:45:45;8.40;;;4.60;;
51525;SDS011;37611;51.794;21.590;2022-08-21T03:49:47;6.80;;;4.60;;
51525;SDS011;37611;51.794;21.590;2022-08-21T03:53:49;5.00;;;4.60;;
51525;SDS011;37611;51.794;21.590;2022-08-21T03:57:50;5.90;;;4.70;;
51525;SDS011;37611;51.794;21.590;2022-08-21T04:01:53;6.70;;;4.20;;
51525;SDS011;37611;51.794;21.590;2022-08-21T04:05:57;6.10;;;4.90;;
51525;SDS011;37611;51.794;21.590;2022-08-21T04:09:59;6.80;;;4.60;;
51525;SDS011;37611;51.794;21.590;2022-08-21T04:14:01;7.40;;;4.90;;
51525;SDS011;37611;51.794;21.590;2022-08-21T04:18:03;10.20;;;5.00;;
51525;SDS011;37611;51.794;21.590;2022-08-21T04:22:06;10.20;;;5.20;;
51525;SDS011;37611;51.794;21.590;2022-08-21T04:26:08;8.90;;;5.10;;
51525;SDS011;37611;51.794;21.590;2022-08-21T04:30:11;9.80;;;5.60;;
51525;SDS011;37611;51.794;21.590;2022-08-21T04:34:15;16.80;;;6.60;;
51525;SDS011;37611;51.794;21.590;2022-08-21T04:38:16;6.50;;;4.60;;
51525;SDS011;37611;51.794;21.590;2022-08-21T04:42:18;6.40;;;4.10;;
51525;SDS011;37611;51.794;21.590;2022-08-21T04:46:21;5.80;;;4.80;;
51525;SDS011;37611;51.794;21.590;2022-08-21T04:50:37;7.60;;;4.80;;
51525;SDS011;37611;51.794;21.590;2022-08-21T04:54:53;8.50;;;4.90;;
51525;SDS011;37611;51.794;21.590;2022-08-21T04:58:56;5.50;;;4.40;;
51525;SDS011;37611;51.794;21.590;2022-08-21T05:03:00;6.20;;;4.60;;
51525;SDS011;37611;51.794;21.590;2022-08-21T05:07:05;8.40;;;4.90;;
51525;SDS011;37611;51.794;21.590;2022-08-21T05:11:11;6.60;;;4.50;;
51525;SDS011;37611;51.794;21.590;2022-08-21T05:15:14;5.80;;;4.50;;
51525;SDS011;37611;51.794;21.590;2022-08-21T05:19:18;6.60;;;4.70;;
51525;SDS011;37611;51.794;21.590;2022-08-21T05:23:20;4.70;;;4.20;;
51525;SDS011;37611;51.794;21.590;2022-08-21T05:27:22;5.00;;;4.40;;
51525;SDS011;37611;51.794;21.590;2022-08-21T05:31:23;5.80;;;4.40;;
51525;SDS011;37611;51.794;21.590;2022-08-21T05:35:26;6.10;;;4.50;;
51525;SDS011;37611;51.794;21.590;2022-08-21T05:39:29;6.00;;;4.20;;
51525;SDS011;37611;51.794;21.590;2022-08-21T05:43:31;5.90;;;4.10;;
51525;SDS011;37611;51.794;21.590;2022-08-21T05:47:37;4.90;;;4.40;;
51525;SDS011;37611;51.794;21.590;2022-08-21T05:51:39;5.90;;;5.40;;
51525;SDS011;37611;51.794;21.590;2022-08-21T05:55:42;7.50;;;6.70;;
51525;SDS011;37611;51.794;21.590;2022-08-21T05:59:45;6.50;;;4.70;;
51525;SDS011;37611;51.794;21.590;2022-08-21T06:03:47;5.10;;;4.60;;
51525;SDS011;37611;51.794;21.590;2022-08-21T06:07:48;5.40;;;4.50;;
51525;SDS011;37611;51.794;21.590;2022-08-21T06:11:50;5.70;;;4.80;;
51525;SDS011;37611;51.794;21.590;2022-08-21T06:20:24;5.50;;;4.60;;
51525;SDS011;37611;51.794;21.590;2022-08-21T06:24:26;5.60;;;4.90;;
51525;SDS011;37611;51.794;21.590;2022-08-21T06:28:28;8.10;;;4.30;;
51525;SDS011;37611;51.794;21.590;2022-08-21T06:32:30;5.80;;;4.50;;
51525;SDS011;37611;51.794;21.590;2022-08-21T06:36:32;5.20;;;4.30;;
51525;SDS011;37611;51.794;21.590;2022-08-21T06:40:34;5.90;;;4.70;;
51525;SDS011;37611;51.794;21.590;2022-08-21T06:44:37;6.50;;;4.50;;
51525;SDS011;37611;51.794;21.590;2022-08-21T06:48:38;9.90;;;4.70;;
51525;SDS011;37611;51.794;21.590;2022-08-21T06:52:40;6.70;;;4.80;;
51525;SDS011;37611;51.794;21.590;2022-08-21T06:56:42;6.90;;;4.80;;
51525;SDS011;37611;51.794;21.590;2022-08-21T07:00:45;5.90;;;5.10;;
51525;SDS011;37611;51.794;21.590;2022-08-21T07:04:48;5.70;;;4.80;;
51525;SDS011;37611;51.794;21.590;2022-08-21T07:08:50;6.50;;;4.50;;
51525;SDS011;37611;51.794;21.590;2022-08-21T07:12:52;7.70;;;4.90;;
51525;SDS011;37611;51.794;21.590;2022-08-21T07:16:56;6.40;;;4.80;;
51525;SDS011;37611;51.794;21.590;2022-08-21T07:20:57;5.50;;;4.30;;
51525;SDS011;37611;51.794;21.590;2022-08-21T07:25:02;11.40;;;5.20;;
51525;SDS011;37611;51.794;21.590;2022-08-21T07:29:05;7.10;;;4.50;;
51525;SDS011;37611;51.794;21.590;2022-08-21T07:33:06;7.20;;;5.00;;
51525;SDS011;37611;51.794;21.590;2022-08-21T07:37:08;6.70;;;4.50;;
51525;SDS011;37611;51.794;21.590;2022-08-21T07:41:13;6.10;;;4.50;;
51525;SDS011;37611;51.794;21.590;2022-08-21T07:45:19;7.00;;;4.70;;
51525;SDS011;37611;51.794;21.590;2022-08-21T07:49:22;5.50;;;4.50;;
51525;SDS011;37611;51.794;21.590;2022-08-21T07:53:24;4.80;;;4.30;;
51525;SDS011;37611;51.794;21.590;2022-08-21T07:57:26;5.50;;;4.70;;
51525;SDS011;37611;51.794;21.590;2022-08-21T08:01:28;6.50;;;4.50;;
51525;SDS011;37611;51.794;21.590;2022-08-21T08:05:30;7.00;;;4.50;;
51525;SDS011;37611;51.794;21.590;2022-08-21T08:09:33;4.70;;;4.20;;
51525;SDS011;37611;51.794;21.590;2022-08-21T08:13:39;4.40;;;4.10;;
51525;SDS011;37611;51.794;21.590;2022-08-21T08:17:42;5.50;;;4.40;;
51525;SDS011;37611;51.794;21.590;2022-08-21T08:21:44;7.20;;;3.60;;
51525;SDS011;37611;51.794;21.590;2022-08-21T08:25:45;6.40;;;3.80;;
51525;SDS011;37611;51.794;21.590;2022-08-21T08:29:48;4.20;;;3.50;;
51525;SDS011;37611;51.794;21.590;2022-08-21T08:33:49;5.00;;;3.70;;
51525;SDS011;37611;51.794;21.590;2022-08-21T08:37:51;4.10;;;3.50;;
51525;SDS011;37611;51.794;21.590;2022-08-21T08:42:11;6.10;;;3.60;;
51525;SDS011;37611;51.794;21.590;2022-08-21T08:46:16;4.60;;;3.80;;
51525;SDS011;37611;51.794;21.590;2022-08-21T08:50:28;5.80;;;3.30;;
51525;SDS011;37611;51.794;21.590;2022-08-21T08:54:42;3.60;;;3.30;;
51525;SDS011;37611;51.794;21.590;2022-08-21T08:58:50;5.30;;;4.40;;
51525;SDS011;37611;51.794;21.590;2022-08-21T09:02:55;4.30;;;3.30;;
51525;SDS011;37611;51.794;21.590;2022-08-21T09:16:09;3.20;;;2.80;;
51525;SDS011;37611;51.794;21.590;2022-08-21T09:21:33;3.40;;;2.40;;
51525;SDS011;37611;51.794;21.590;2022-08-21T09:25:34;4.30;;;2.10;;
51525;SDS011;37611;51.794;21.590;2022-08-21T09:29:49;3.00;;;2.70;;
51525;SDS011;37611;51.794;21.590;2022-08-21T09:33:57;4.50;;;2.30;;
51525;SDS011;37611;51.794;21.590;2022-08-21T09:38:09;4.50;;;2.60;;
51525;SDS011;37611;51.794;21.590;2022-08-21T09:42:12;3.00;;;2.30;;
51525;SDS011;37611;51.794;21.590;2022-08-21T09:46:27;3.20;;;2.90;;
51525;SDS011;37611;51.794;21.590;2022-08-21T09:50:29;5.50;;;2.80;;
51525;SDS011;37611;51.794;21.590;2022-08-21T09:54:35;3.50;;;2.80;;
51525;SDS011;37611;51.794;21.590;2022-08-21T09:58:41;3.50;;;3.20;;
51525;SDS011;37611;51.794;21.590;2022-08-21T10:02:45;6.30;;;3.00;;
51525;SDS011;37611;51.794;21.590;2022-08-21T10:06:47;3.80;;;2.80;;
51525;SDS011;37611;51.794;21.590;2022-08-21T10:10:56;4.00;;;2.90;;
51525;SDS011;37611;51.794;21.590;2022-08-21T10:19:31;4.60;;;2.90;;
51525;SDS011;37611;51.794;21.590;2022-08-21T10:27:50;3.30;;;2.50;;
51525;SDS011;37611;51.794;21.590;2022-08-21T10:32:06;4.50;;;2.90;;
51525;SDS011;37611;51.794;21.590;2022-08-21T10:36:14;3.10;;;2.70;;
51525;SDS011;37611;51.794;21.590;2022-08-21T10:40:26;3.00;;;2.60;;
51525;SDS011;37611;51.794;21.590;2022-08-21T10:44:41;3.60;;;3.00;;
51525;SDS011;37611;51.794;21.590;2022-08-21T10:49:29;4.80;;;2.60;;
51525;SDS011;37611;51.794;21.590;2022-08-21T10:58:36;3.20;;;2.40;;
51525;SDS011;37611;51.794;21.590;2022-08-21T11:02:48;2.60;;;2.30;;
51525;SDS011;37611;51.794;21.590;2022-08-21T11:07:04;2.30;;;2.10;;
51525;SDS011;37611;51.794;21.590;2022-08-21T11:15:45;2.40;;;2.10;;
51525;SDS011;37611;51.794;21.590;2022-08-21T11:28:52;2.50;;;2.30;;
51525;SDS011;37611;51.794;21.590;2022-08-21T11:41:58;3.70;;;2.60;;
51525;SDS011;37611;51.794;21.590;2022-08-21T11:46:11;3.10;;;2.80;;
51525;SDS011;37611;51.794;21.590;2022-08-21T11:50:18;3.20;;;2.80;;
51525;SDS011;37611;51.794;21.590;2022-08-21T11:54:36;4.70;;;2.70;;
51525;SDS011;37611;51.794;21.590;2022-08-21T11:58:45;3.20;;;2.70;;
51525;SDS011;37611;51.794;21.590;2022-08-21T12:02:56;3.60;;;2.70;;
51525;SDS011;37611;51.794;21.590;2022-08-21T12:07:15;3.30;;;2.70;;
51525;SDS011;37611;51.794;21.590;2022-08-21T12:11:29;2.70;;;2.40;;
51525;SDS011;37611;51.794;21.590;2022-08-21T12:15:31;2.50;;;2.30;;
51525;SDS011;37611;51.794;21.590;2022-08-21T12:19:33;2.50;;;2.30;;
51525;SDS011;37611;51.794;21.590;2022-08-21T12:27:53;2.90;;;2.20;;
51525;SDS011;37611;51.794;21.590;2022-08-21T12:36:17;3.20;;;2.70;;
51525;SDS011;37611;51.794;21.590;2022-08-21T12:40:23;4.00;;;2.70;;
51525;SDS011;37611;51.794;21.590;2022-08-21T12:44:35;3.20;;;2.90;;
51525;SDS011;37611;51.794;21.590;2022-08-21T12:48:43;4.30;;;2.40;;
51525;SDS011;37611;51.794;21.590;2022-08-21T12:53:02;6.00;;;2.80;;
51525;SDS011;37611;51.794;21.590;2022-08-21T12:57:06;3.50;;;2.60;;
51525;SDS011;37611;51.794;21.590;2022-08-21T13:05:27;2.90;;;2.70;;
51525;SDS011;37611;51.794;21.590;2022-08-21T13:09:33;4.20;;;3.00;;
51525;SDS011;37611;51.794;21.590;2022-08-21T13:13:34;3.40;;;2.70;;
51525;SDS011;37611;51.794;21.590;2022-08-21T13:17:38;3.30;;;3.00;;
51525;SDS011;37611;51.794;21.590;2022-08-21T13:21:45;3.30;;;3.00;;
51525;SDS011;37611;51.794;21.590;2022-08-21T13:25:47;5.20;;;3.30;;
51525;SDS011;37611;51.794;21.590;2022-08-21T13:30:00;3.30;;;3.00;;
51525;SDS011;37611;51.794;21.590;2022-08-21T13:34:13;4.20;;;3.10;;
51525;SDS011;37611;51.794;21.590;2022-08-21T13:38:17;3.80;;;3.50;;
51525;SDS011;37611;51.794;21.590;2022-08-21T13:42:21;3.90;;;3.10;;
51525;SDS011;37611;51.794;21.590;2022-08-21T13:46:26;4.20;;;3.40;;
51525;SDS011;37611;51.794;21.590;2022-08-21T13:50:32;4.00;;;3.30;;
51525;SDS011;37611;51.794;21.590;2022-08-21T13:54:40;5.50;;;3.80;;
51525;SDS011;37611;51.794;21.590;2022-08-21T13:58:45;4.10;;;3.30;;
51525;SDS011;37611;51.794;21.590;2022-08-21T14:02:49;4.20;;;3.50;;
51525;SDS011;37611;51.794;21.590;2022-08-21T14:06:54;4.00;;;3.60;;
51525;SDS011;37611;51.794;21.590;2022-08-21T14:10:55;4.60;;;3.70;;
51525;SDS011;37611;51.794;21.590;2022-08-21T14:14:58;4.20;;;3.80;;
51525;SDS011;37611;51.794;21.590;2022-08-21T14:19:10;4.00;;;3.60;;
51525;SDS011;37611;51.794;21.590;2022-08-21T14:23:25;4.10;;;3.70;;
51525;SDS011;37611;51.794;21.590;2022-08-21T14:27:29;4.00;;;3.60;;
51525;SDS011;37611;51.794;21.590;2022-08-21T14:31:32;3.90;;;3.40;;
51525;SDS011;37611;51.794;21.590;2022-08-21T14:35:35;5.20;;;4.50;;
51525;SDS011;37611;51.794;21.590;2022-08-21T14:39:37;5.60;;;4.70;;
51525;SDS011;37611;51.794;21.590;2022-08-21T14:43:39;5.10;;;3.70;;
51525;SDS011;37611;51.794;21.590;2022-08-21T14:47:41;3.80;;;3.30;;
51525;SDS011;37611;51.794;21.590;2022-08-21T14:51:43;4.30;;;3.60;;
51525;SDS011;37611;51.794;21.590;2022-08-21T14:55:45;3.60;;;3.30;;
51525;SDS011;37611;51.794;21.590;2022-08-21T15:00:06;4.30;;;3.80;;
51525;SDS011;37611;51.794;21.590;2022-08-21T15:04:10;4.00;;;3.60;;
51525;SDS011;37611;51.794;21.590;2022-08-21T15:08:12;5.90;;;3.70;;
51525;SDS011;37611;51.794;21.590;2022-08-21T15:12:14;4.30;;;3.90;;
51525;SDS011;37611;51.794;21.590;2022-08-21T15:16:16;5.70;;;3.70;;
51525;SDS011;37611;51.794;21.590;2022-08-21T15:20:18;4.00;;;3.40;;
51525;SDS011;37611;51.794;21.590;2022-08-21T15:24:20;5.70;;;4.00;;
51525;SDS011;37611;51.794;21.590;2022-08-21T15:28:21;6.30;;;3.40;;
51525;SDS011;37611;51.794;21.590;2022-08-21T15:32:24;3.80;;;3.40;;
51525;SDS011;37611;51.794;21.590;2022-08-21T15:36:29;5.00;;;3.70;;
51525;SDS011;37611;51.794;21.590;2022-08-21T15:40:31;6.10;;;3.60;;
51525;SDS011;37611;51.794;21.590;2022-08-21T15:44:34;4.20;;;3.80;;
51525;SDS011;37611;51.794;21.590;2022-08-21T15:48:36;3.70;;;3.20;;
51525;SDS011;37611;51.794;21.590;2022-08-21T15:52:38;3.50;;;3.20;;
51525;SDS011;37611;51.794;21.590;2022-08-21T15:56:43;4.20;;;3.60;;
51525;SDS011;37611;51.794;21.590;2022-08-21T16:00:48;4.20;;;3.50;;
51525;SDS011;37611;51.794;21.590;2022-08-21T16:04:50;4.00;;;3.60;;
51525;SDS011;37611;51.794;21.590;2022-08-21T16:08:51;3.70;;;3.40;;
51525;SDS011;37611;51.794;21.590;2022-08-21T16:13:03;3.70;;;3.40;;
51525;SDS011;37611;51.794;21.590;2022-08-21T16:17:08;3.60;;;3.00;;
51525;SDS011;37611;51.794;21.590;2022-08-21T16:21:10;5.00;;;3.40;;
51525;SDS011;37611;51.794;21.590;2022-08-21T16:25:12;5.70;;;3.30;;
51525;SDS011;37611;51.794;21.590;2022-08-21T16:29:15;5.70;;;4.60;;
51525;SDS011;37611;51.794;21.590;2022-08-21T16:33:20;4.00;;;3.70;;
51525;SDS011;37611;51.794;21.590;2022-08-21T16:37:42;8.60;;;7.80;;
51525;SDS011;37611;51.794;21.590;2022-08-21T16:41:44;7.90;;;6.70;;
51525;SDS011;37611;51.794;21.590;2022-08-21T16:45:49;4.70;;;4.20;;
51525;SDS011;37611;51.794;21.590;2022-08-21T16:49:51;5.10;;;3.70;;
51525;SDS011;37611;51.794;21.590;2022-08-21T16:53:54;5.50;;;4.00;;
51525;SDS011;37611;51.794;21.590;2022-08-21T16:57:55;3.70;;;3.40;;
51525;SDS011;37611;51.794;21.590;2022-08-21T17:01:57;3.70;;;3.40;;
51525;SDS011;37611;51.794;21.590;2022-08-21T17:05:59;6.00;;;3.90;;
51525;SDS011;37611;51.794;21.590;2022-08-21T17:10:02;4.70;;;4.10;;
51525;SDS011;37611;51.794;21.590;2022-08-21T17:14:07;5.80;;;4.20;;
51525;SDS011;37611;51.794;21.590;2022-08-21T17:18:14;5.40;;;4.00;;
51525;SDS011;37611;51.794;21.590;2022-08-21T17:22:19;5.20;;;4.70;;
51525;SDS011;37611;51.794;21.590;2022-08-21T17:26:21;6.20;;;5.70;;
51525;SDS011;37611;51.794;21.590;2022-08-21T17:30:23;13.30;;;5.90;;
51525;SDS011;37611;51.794;21.590;2022-08-21T17:34:26;5.80;;;5.20;;
51525;SDS011;37611;51.794;21.590;2022-08-21T17:38:27;10.30;;;7.00;;
51525;SDS011;37611;51.794;21.590;2022-08-21T17:42:29;9.40;;;6.20;;
51525;SDS011;37611;51.794;21.590;2022-08-21T17:46:32;6.20;;;5.40;;
51525;SDS011;37611;51.794;21.590;2022-08-21T17:50:34;5.90;;;5.00;;
51525;SDS011;37611;51.794;21.590;2022-08-21T17:54:37;4.40;;;4.00;;
51525;SDS011;37611;51.794;21.590;2022-08-21T17:58:41;4.10;;;3.70;;
51525;SDS011;37611;51.794;21.590;2022-08-21T18:02:48;5.00;;;4.50;;
51525;SDS011;37611;51.794;21.590;2022-08-21T18:06:58;6.90;;;4.50;;
51525;SDS011;37611;51.794;21.590;2022-08-21T18:10:59;5.60;;;5.10;;
51525;SDS011;37611;51.794;21.590;2022-08-21T18:15:02;5.90;;;5.10;;
51525;SDS011;37611;51.794;21.590;2022-08-21T18:19:07;5.10;;;4.40;;
51525;SDS011;37611;51.794;21.590;2022-08-21T18:23:12;6.80;;;4.70;;
51525;SDS011;37611;51.794;21.590;2022-08-21T18:27:13;7.70;;;6.90;;
51525;SDS011;37611;51.794;21.590;2022-08-21T18:31:15;10.20;;;7.30;;
51525;SDS011;37611;51.794;21.590;2022-08-21T18:35:17;6.70;;;5.70;;
51525;SDS011;37611;51.794;21.590;2022-08-21T18:39:20;6.10;;;5.10;;
51525;SDS011;37611;51.794;21.590;2022-08-21T18:43:22;4.80;;;4.40;;
51525;SDS011;37611;51.794;21.590;2022-08-21T18:47:31;6.00;;;5.40;;
51525;SDS011;37611;51.794;21.590;2022-08-21T18:51:55;5.60;;;4.80;;
51525;SDS011;37611;51.794;21.590;2022-08-21T18:55:57;6.00;;;5.20;;
51525;SDS011;37611;51.794;21.590;2022-08-21T18:59:59;6.10;;;5.20;;
51525;SDS011;37611;51.794;21.590;2022-08-21T19:04:02;9.00;;;6.40;;
51525;SDS011;37611;51.794;21.590;2022-08-21T19:08:04;6.50;;;5.30;;
51525;SDS011;37611;51.794;21.590;2022-08-21T19:12:06;8.40;;;5.60;;
51525;SDS011;37611;51.794;21.590;2022-08-21T19:16:08;7.50;;;5.30;;
51525;SDS011;37611;51.794;21.590;2022-08-21T19:20:12;5.70;;;5.20;;
51525;SDS011;37611;51.794;21.590;2022-08-21T19:24:18;5.70;;;5.20;;
51525;SDS011;37611;51.794;21.590;2022-08-21T19:28:21;8.00;;;7.10;;
51525;SDS011;37611;51.794;21.590;2022-08-21T19:32:31;7.30;;;6.60;;
51525;SDS011;37611;51.794;21.590;2022-08-21T19:36:33;6.80;;;6.10;;
51525;SDS011;37611;51.794;21.590;2022-08-21T19:40:35;8.20;;;7.00;;
51525;SDS011;37611;51.794;21.590;2022-08-21T19:44:37;8.80;;;6.70;;
51525;SDS011;37611;51.794;21.590;2022-08-21T19:48:40;7.30;;;6.40;;
51525;SDS011;37611;51.794;21.590;2022-08-21T19:52:41;8.60;;;6.50;;
51525;SDS011;37611;51.794;21.590;2022-08-21T19:56:44;8.80;;;6.60;;
51525;SDS011;37611;51.794;21.590;2022-08-21T20:00:47;8.30;;;6.50;;
51525;SDS011;37611;51.794;21.590;2022-08-21T20:04:49;8.40;;;6.30;;
51525;SDS011;37611;51.794;21.590;2022-08-21T20:08:51;6.70;;;5.80;;
51525;SDS011;37611;51.794;21.590;2022-08-21T20:12:54;8.30;;;6.30;;
51525;SDS011;37611;51.794;21.590;2022-08-21T20:16:58;7.10;;;6.40;;
51525;SDS011;37611;51.794;21.590;2022-08-21T20:21:05;6.10;;;5.50;;
51525;SDS011;37611;51.794;21.590;2022-08-21T20:25:07;5.90;;;5.30;;
51525;SDS011;37611;51.794;21.590;2022-08-21T20:29:09;5.80;;;5.10;;
51525;SDS011;37611;51.794;21.590;2022-08-21T20:33:11;7.10;;;5.20;;
51525;SDS011;37611;51.794;21.590;2022-08-21T20:37:13;6.90;;;6.10;;
51525;SDS011;37611;51.794;21.590;2022-08-21T20:41:16;7.30;;;6.60;;
51525;SDS011;37611;51.794;21.590;2022-08-21T20:49:28;7.40;;;5.40;;
51525;SDS011;37611;51.794;21.590;2022-08-21T20:57:58;5.80;;;5.30;;
51525;SDS011;37611;51.794;21.590;2022-08-21T21:06:25;8.20;;;5.60;;
51525;SDS011;37611;51.794;21.590;2022-08-21T21:10:32;8.30;;;6.00;;
51525;SDS011;37611;51.794;21.590;2022-08-21T21:14:42;5.70;;;5.20;;
51525;SDS011;37611;51.794;21.590;2022-08-21T21:18:54;6.50;;;5.40;;
51525;SDS011;37611;51.794;21.590;2022-08-21T21:23:22;6.30;;;5.60;;
51525;SDS011;37611;51.794;21.590;2022-08-21T21:27:35;8.10;;;6.00;;
51525;SDS011;37611;51.794;21.590;2022-08-21T21:31:41;6.00;;;5.10;;
51525;SDS011;37611;51.794;21.590;2022-08-21T21:35:47;5.90;;;5.30;;
51525;SDS011;37611;51.794;21.590;2022-08-21T21:48:52;6.90;;;5.60;;
51525;SDS011;37611;51.794;21.590;2022-08-21T22:06:14;6.70;;;6.00;;
51525;SDS011;37611;51.794;21.590;2022-08-21T22:10:20;6.60;;;5.70;;
51525;SDS011;37611;51.794;21.590;2022-08-21T22:14:29;6.80;;;6.20;;
51525;SDS011;37611;51.794;21.590;2022-08-21T22:18:41;7.30;;;6.60;;
51525;SDS011;37611;51.794;21.590;2022-08-21T22:22:48;6.60;;;5.90;;
51525;SDS011;37611;51.794;21.590;2022-08-21T22:26:53;6.70;;;5.80;;
51525;SDS011;37611;51.794;21.590;2022-08-21T22:35:19;6.70;;;6.10;;
51525;SDS011;37611;51.794;21.590;2022-08-21T22:39:31;7.40;;;6.10;;
51525;SDS011;37611;51.794;21.590;2022-08-21T22:43:35;6.70;;;6.00;;
51525;SDS011;37611;51.794;21.590;2022-08-21T22:47:39;8.00;;;6.70;;
51525;SDS011;37611;51.794;21.590;2022-08-21T22:51:44;8.20;;;6.30;;
51525;SDS011;37611;51.794;21.590;2022-08-21T22:55:55;7.30;;;6.40;;
51525;SDS011;37611;51.794;21.590;2022-08-21T22:59:59;6.60;;;6.00;;
51525;SDS011;37611;51.794;21.590;2022-08-21T23:04:18;7.10;;;6.40;;
51525;SDS011;37611;51.794;21.590;2022-08-21T23:08:31;7.30;;;6.60;;
51525;SDS011;37611;51.794;21.590;2022-08-21T23:12:36;7.20;;;6.50;;
51525;SDS011;37611;51.794;21.590;2022-08-21T23:17:00;6.60;;;6.00;;
51525;SDS011;37611;51.794;21.590;2022-08-21T23:25:21;7.90;;;7.10;;
51525;SDS011;37611;51.794;21.590;2022-08-21T23:47:00;8.70;;;7.10;;
51525;SDS011;37611;51.794;21.590;2022-08-21T23:51:11;7.00;;;6.20;;
51525;SDS011;37611;51.794;21.590;2022-08-21T23:59:44;7.30;;;6.60;;
